sensor_id;sensor_type;location;lat;lon;timestamp;P1;durP1;ratioP1;P2;durP2;ratioP2
21758;SDS011;11041;50.854;20.580;2023-04-25T00:01:04;16.80;;;12.25;;
21758;SDS011;11041;50.854;20.580;2023-04-25T00:03:31;17.55;;;11.40;;
21758;SDS011;11041;50.854;20.580;2023-04-25T00:05:58;17.35;;;12.48;;
21758;SDS011;11041;50.854;20.580;2023-04-25T00:08:28;16.08;;;11.70;;
21758;SDS011;11041;50.854;20.580;2023-04-25T00:10:59;15.60;;;11.85;;
21758;SDS011;11041;50.854;20.580;2023-04-25T00:13:26;17.52;;;12.13;;
21758;SDS011;11041;50.854;20.580;2023-04-25T00:15:53;16.92;;;12.45;;
21758;SDS011;11041;50.854;20.580;2023-04-25T00:18:19;18.60;;;12.13;;
21758;SDS011;11041;50.854;20.580;2023-04-25T00:20:49;20.73;;;14.40;;
21758;SDS011;11041;50.854;20.580;2023-04-25T00:23:16;17.33;;;12.57;;
21758;SDS011;11041;50.854;20.580;2023-04-25T00:25:43;15.65;;;10.95;;
21758;SDS011;11041;50.854;20.580;2023-04-25T00:28:12;14.38;;;10.82;;
21758;SDS011;11041;50.854;20.580;2023-04-25T00:30:39;16.65;;;11.70;;
21758;SDS011;11041;50.854;20.580;2023-04-25T00:33:07;16.33;;;11.27;;
21758;SDS011;11041;50.854;20.580;2023-04-25T00:35:34;16.55;;;11.02;;
21758;SDS011;11041;50.854;20.580;2023-04-25T00:38:01;16.48;;;11.55;;
21758;SDS011;11041;50.854;20.580;2023-04-25T00:40:28;15.85;;;11.07;;
21758;SDS011;11041;50.854;20.580;2023-04-25T00:42:55;13.18;;;10.32;;
21758;SDS011;11041;50.854;20.580;2023-04-25T00:45:21;15.98;;;11.27;;
21758;SDS011;11041;50.854;20.580;2023-04-25T00:47:53;13.93;;;11.30;;
21758;SDS011;11041;50.854;20.580;2023-04-25T00:50:22;13.88;;;11.13;;
21758;SDS011;11041;50.854;20.580;2023-04-25T00:52:50;16.42;;;11.15;;
21758;SDS011;11041;50.854;20.580;2023-04-25T00:55:17;15.13;;;10.75;;
21758;SDS011;11041;50.854;20.580;2023-04-25T00:57:45;13.57;;;11.15;;
21758;SDS011;11041;50.854;20.580;2023-04-25T01:00:12;15.90;;;12.00;;
21758;SDS011;11041;50.854;20.580;2023-04-25T01:02:40;15.57;;;11.23;;
21758;SDS011;11041;50.854;20.580;2023-04-25T01:05:07;16.35;;;11.85;;
21758;SDS011;11041;50.854;20.580;2023-04-25T01:07:34;14.77;;;11.48;;
21758;SDS011;11041;50.854;20.580;2023-04-25T01:10:01;15.30;;;12.00;;
21758;SDS011;11041;50.854;20.580;2023-04-25T01:12:29;17.80;;;11.82;;
21758;SDS011;11041;50.854;20.580;2023-04-25T01:14:55;15.20;;;12.18;;
21758;SDS011;11041;50.854;20.580;2023-04-25T01:17:22;19.33;;;12.30;;
21758;SDS011;11041;50.854;20.580;2023-04-25T01:19:49;16.40;;;12.07;;
21758;SDS011;11041;50.854;20.580;2023-04-25T01:22:17;20.45;;;12.98;;
21758;SDS011;11041;50.854;20.580;2023-04-25T01:24:43;18.65;;;12.27;;
21758;SDS011;11041;50.854;20.580;2023-04-25T01:27:11;19.08;;;11.50;;
21758;SDS011;11041;50.854;20.580;2023-04-25T01:29:37;17.35;;;12.57;;
21758;SDS011;11041;50.854;20.580;2023-04-25T01:32:05;14.68;;;11.50;;
21758;SDS011;11041;50.854;20.580;2023-04-25T01:34:33;21.90;;;13.50;;
21758;SDS011;11041;50.854;20.580;2023-04-25T01:37:00;19.42;;;14.10;;
21758;SDS011;11041;50.854;20.580;2023-04-25T01:39:27;19.30;;;14.27;;
21758;SDS011;11041;50.854;20.580;2023-04-25T01:42:19;20.25;;;12.73;;
21758;SDS011;11041;50.854;20.580;2023-04-25T01:45:11;21.10;;;14.00;;
21758;SDS011;11041;50.854;20.580;2023-04-25T01:48:02;19.73;;;13.75;;
21758;SDS011;11041;50.854;20.580;2023-04-25T01:50:53;17.40;;;13.43;;
21758;SDS011;11041;50.854;20.580;2023-04-25T01:53:44;19.65;;;13.70;;
21758;SDS011;11041;50.854;20.580;2023-04-25T01:56:39;23.95;;;15.05;;
21758;SDS011;11041;50.854;20.580;2023-04-25T01:59:31;15.13;;;12.77;;
21758;SDS011;11041;50.854;20.580;2023-04-25T02:02:22;17.08;;;13.68;;
21758;SDS011;11041;50.854;20.580;2023-04-25T02:23:23;19.15;;;15.52;;
21758;SDS011;11041;50.854;20.580;2023-04-25T02:25:49;19.67;;;16.58;;
21758;SDS011;11041;50.854;20.580;2023-04-25T02:28:17;21.05;;;18.65;;
21758;SDS011;11041;50.854;20.580;2023-04-25T02:30:44;26.08;;;18.15;;
21758;SDS011;11041;50.854;20.580;2023-04-25T02:33:10;23.88;;;17.80;;
21758;SDS011;11041;50.854;20.580;2023-04-25T02:35:37;20.58;;;17.20;;
21758;SDS011;11041;50.854;20.580;2023-04-25T02:38:03;20.10;;;16.83;;
21758;SDS011;11041;50.854;20.580;2023-04-25T02:40:30;17.38;;;15.32;;
21758;SDS011;11041;50.854;20.580;2023-04-25T02:42:56;16.70;;;14.70;;
21758;SDS011;11041;50.854;20.580;2023-04-25T02:45:23;16.02;;;13.77;;
21758;SDS011;11041;50.854;20.580;2023-04-25T02:47:49;15.57;;;13.13;;
21758;SDS011;11041;50.854;20.580;2023-04-25T02:50:16;13.27;;;11.65;;
21758;SDS011;11041;50.854;20.580;2023-04-25T02:52:44;9.65;;;8.10;;
21758;SDS011;11041;50.854;20.580;2023-04-25T02:55:12;9.40;;;8.40;;
21758;SDS011;11041;50.854;20.580;2023-04-25T02:57:39;9.55;;;7.82;;
21758;SDS011;11041;50.854;20.580;2023-04-25T03:00:06;7.80;;;7.00;;
21758;SDS011;11041;50.854;20.580;2023-04-25T03:02:33;7.22;;;5.75;;
21758;SDS011;11041;50.854;20.580;2023-04-25T03:05:00;7.22;;;6.50;;
21758;SDS011;11041;50.854;20.580;2023-04-25T03:07:26;7.15;;;5.88;;
21758;SDS011;11041;50.854;20.580;2023-04-25T03:09:52;7.80;;;5.65;;
21758;SDS011;11041;50.854;20.580;2023-04-25T03:12:19;7.10;;;5.82;;
21758;SDS011;11041;50.854;20.580;2023-04-25T03:14:45;7.00;;;6.28;;
21758;SDS011;11041;50.854;20.580;2023-04-25T03:17:12;6.85;;;6.10;;
21758;SDS011;11041;50.854;20.580;2023-04-25T03:19:38;6.38;;;5.40;;
21758;SDS011;11041;50.854;20.580;2023-04-25T03:22:05;6.60;;;5.28;;
21758;SDS011;11041;50.854;20.580;2023-04-25T03:24:31;7.07;;;5.97;;
21758;SDS011;11041;50.854;20.580;2023-04-25T03:26:58;6.78;;;5.63;;
21758;SDS011;11041;50.854;20.580;2023-04-25T03:29:24;6.30;;;5.68;;
21758;SDS011;11041;50.854;20.580;2023-04-25T03:31:52;6.57;;;5.90;;
21758;SDS011;11041;50.854;20.580;2023-04-25T03:34:18;7.18;;;6.45;;
21758;SDS011;11041;50.854;20.580;2023-04-25T03:36:47;9.07;;;5.82;;
21758;SDS011;11041;50.854;20.580;2023-04-25T03:39:13;6.70;;;5.95;;
21758;SDS011;11041;50.854;20.580;2023-04-25T03:41:40;8.82;;;6.72;;
21758;SDS011;11041;50.854;20.580;2023-04-25T03:44:06;7.15;;;6.10;;
21758;SDS011;11041;50.854;20.580;2023-04-25T03:46:33;6.35;;;5.65;;
21758;SDS011;11041;50.854;20.580;2023-04-25T03:48:59;7.28;;;6.13;;
21758;SDS011;11041;50.854;20.580;2023-04-25T03:51:26;8.38;;;5.80;;
21758;SDS011;11041;50.854;20.580;2023-04-25T03:53:52;8.13;;;6.35;;
21758;SDS011;11041;50.854;20.580;2023-04-25T03:56:19;7.10;;;6.40;;
21758;SDS011;11041;50.854;20.580;2023-04-25T03:58:46;8.52;;;6.45;;
21758;SDS011;11041;50.854;20.580;2023-04-25T04:01:12;7.65;;;6.50;;
21758;SDS011;11041;50.854;20.580;2023-04-25T04:03:39;7.82;;;6.70;;
21758;SDS011;11041;50.854;20.580;2023-04-25T04:06:06;9.02;;;7.53;;
21758;SDS011;11041;50.854;20.580;2023-04-25T04:08:34;8.68;;;7.43;;
21758;SDS011;11041;50.854;20.580;2023-04-25T04:11:01;8.70;;;7.90;;
21758;SDS011;11041;50.854;20.580;2023-04-25T04:13:28;9.10;;;8.15;;
21758;SDS011;11041;50.854;20.580;2023-04-25T04:15:55;11.02;;;8.07;;
21758;SDS011;11041;50.854;20.580;2023-04-25T04:18:23;10.82;;;9.60;;
21758;SDS011;11041;50.854;20.580;2023-04-25T04:20:49;11.32;;;10.05;;
21758;SDS011;11041;50.854;20.580;2023-04-25T04:23:16;10.95;;;9.23;;
21758;SDS011;11041;50.854;20.580;2023-04-25T04:25:42;10.60;;;9.50;;
21758;SDS011;11041;50.854;20.580;2023-04-25T04:28:09;12.13;;;10.13;;
21758;SDS011;11041;50.854;20.580;2023-04-25T04:30:36;14.10;;;10.95;;
21758;SDS011;11041;50.854;20.580;2023-04-25T04:33:03;13.18;;;11.77;;
21758;SDS011;11041;50.854;20.580;2023-04-25T04:35:29;11.93;;;10.43;;
21758;SDS011;11041;50.854;20.580;2023-04-25T04:37:56;20.38;;;12.10;;
21758;SDS011;11041;50.854;20.580;2023-04-25T04:40:22;15.32;;;12.45;;
21758;SDS011;11041;50.854;20.580;2023-04-25T04:42:48;16.52;;;13.15;;
21758;SDS011;11041;50.854;20.580;2023-04-25T04:45:15;15.30;;;13.25;;
21758;SDS011;11041;50.854;20.580;2023-04-25T04:47:42;15.85;;;12.00;;
21758;SDS011;11041;50.854;20.580;2023-04-25T04:50:09;15.50;;;12.95;;
21758;SDS011;11041;50.854;20.580;2023-04-25T04:52:36;15.70;;;13.68;;
21758;SDS011;11041;50.854;20.580;2023-04-25T04:55:04;18.08;;;13.90;;
21758;SDS011;11041;50.854;20.580;2023-04-25T04:57:32;17.42;;;14.77;;
21758;SDS011;11041;50.854;20.580;2023-04-25T04:59:58;14.25;;;12.75;;
21758;SDS011;11041;50.854;20.580;2023-04-25T05:02:26;15.65;;;13.23;;
21758;SDS011;11041;50.854;20.580;2023-04-25T05:04:53;16.13;;;14.43;;
21758;SDS011;11041;50.854;20.580;2023-04-25T05:07:19;15.65;;;13.90;;
21758;SDS011;11041;50.854;20.580;2023-04-25T05:09:46;15.27;;;12.65;;
21758;SDS011;11041;50.854;20.580;2023-04-25T05:12:13;14.45;;;12.20;;
21758;SDS011;11041;50.854;20.580;2023-04-25T05:14:39;18.98;;;15.32;;
21758;SDS011;11041;50.854;20.580;2023-04-25T05:17:06;17.60;;;15.80;;
21758;SDS011;11041;50.854;20.580;2023-04-25T05:19:34;17.38;;;14.55;;
21758;SDS011;11041;50.854;20.580;2023-04-25T05:22:01;20.58;;;17.17;;
21758;SDS011;11041;50.854;20.580;2023-04-25T05:24:28;17.95;;;15.93;;
21758;SDS011;11041;50.854;20.580;2023-04-25T05:26:56;18.83;;;17.02;;
21758;SDS011;11041;50.854;20.580;2023-04-25T05:29:23;14.23;;;12.63;;
21758;SDS011;11041;50.854;20.580;2023-04-25T05:31:49;15.60;;;13.00;;
21758;SDS011;11041;50.854;20.580;2023-04-25T05:34:16;17.40;;;14.23;;
21758;SDS011;11041;50.854;20.580;2023-04-25T05:36:43;14.60;;;13.02;;
21758;SDS011;11041;50.854;20.580;2023-04-25T05:39:10;15.98;;;14.38;;
21758;SDS011;11041;50.854;20.580;2023-04-25T05:41:37;13.45;;;11.43;;
21758;SDS011;11041;50.854;20.580;2023-04-25T05:44:03;15.23;;;13.73;;
21758;SDS011;11041;50.854;20.580;2023-04-25T05:46:30;13.77;;;12.00;;
21758;SDS011;11041;50.854;20.580;2023-04-25T05:48:56;15.95;;;13.50;;
21758;SDS011;11041;50.854;20.580;2023-04-25T05:51:23;14.13;;;12.35;;
21758;SDS011;11041;50.854;20.580;2023-04-25T05:53:49;14.38;;;12.88;;
21758;SDS011;11041;50.854;20.580;2023-04-25T05:56:16;16.58;;;12.02;;
21758;SDS011;11041;50.854;20.580;2023-04-25T05:58:43;16.05;;;12.27;;
21758;SDS011;11041;50.854;20.580;2023-04-25T06:01:09;14.52;;;12.93;;
21758;SDS011;11041;50.854;20.580;2023-04-25T06:03:36;15.10;;;12.82;;
21758;SDS011;11041;50.854;20.580;2023-04-25T06:06:03;14.65;;;13.13;;
21758;SDS011;11041;50.854;20.580;2023-04-25T06:08:30;14.70;;;13.00;;
21758;SDS011;11041;50.854;20.580;2023-04-25T06:10:57;18.95;;;14.48;;
21758;SDS011;11041;50.854;20.580;2023-04-25T06:13:23;13.98;;;12.40;;
21758;SDS011;11041;50.854;20.580;2023-04-25T06:15:50;14.05;;;10.57;;
21758;SDS011;11041;50.854;20.580;2023-04-25T06:18:17;15.93;;;14.23;;
21758;SDS011;11041;50.854;20.580;2023-04-25T06:20:43;12.90;;;10.80;;
21758;SDS011;11041;50.854;20.580;2023-04-25T06:23:10;16.17;;;12.93;;
21758;SDS011;11041;50.854;20.580;2023-04-25T06:25:36;13.98;;;12.15;;
21758;SDS011;11041;50.854;20.580;2023-04-25T06:28:03;14.82;;;12.32;;
21758;SDS011;11041;50.854;20.580;2023-04-25T06:30:30;12.82;;;11.48;;
21758;SDS011;11041;50.854;20.580;2023-04-25T06:32:57;14.35;;;11.98;;
21758;SDS011;11041;50.854;20.580;2023-04-25T06:35:23;14.48;;;12.82;;
21758;SDS011;11041;50.854;20.580;2023-04-25T06:37:50;15.65;;;11.80;;
21758;SDS011;11041;50.854;20.580;2023-04-25T06:40:16;12.18;;;10.45;;
21758;SDS011;11041;50.854;20.580;2023-04-25T06:42:42;13.85;;;11.32;;
21758;SDS011;11041;50.854;20.580;2023-04-25T06:45:09;9.27;;;7.68;;
21758;SDS011;11041;50.854;20.580;2023-04-25T06:47:36;14.35;;;12.82;;
21758;SDS011;11041;50.854;20.580;2023-04-25T06:50:03;12.40;;;10.73;;
21758;SDS011;11041;50.854;20.580;2023-04-25T06:52:31;16.45;;;12.13;;
21758;SDS011;11041;50.854;20.580;2023-04-25T06:54:58;12.73;;;10.52;;
21758;SDS011;11041;50.854;20.580;2023-04-25T06:57:24;14.23;;;12.73;;
21758;SDS011;11041;50.854;20.580;2023-04-25T06:59:51;14.15;;;11.18;;
21758;SDS011;11041;50.854;20.580;2023-04-25T07:02:17;11.10;;;10.00;;
21758;SDS011;11041;50.854;20.580;2023-04-25T07:04:44;15.25;;;12.20;;
21758;SDS011;11041;50.854;20.580;2023-04-25T07:07:11;14.48;;;12.70;;
21758;SDS011;11041;50.854;20.580;2023-04-25T07:09:38;8.65;;;7.00;;
21758;SDS011;11041;50.854;20.580;2023-04-25T07:12:04;15.75;;;13.43;;
21758;SDS011;11041;50.854;20.580;2023-04-25T07:14:31;14.98;;;11.80;;
21758;SDS011;11041;50.854;20.580;2023-04-25T07:17:04;12.88;;;11.32;;
21758;SDS011;11041;50.854;20.580;2023-04-25T07:19:32;13.30;;;11.43;;
21758;SDS011;11041;50.854;20.580;2023-04-25T07:21:58;14.45;;;11.52;;
21758;SDS011;11041;50.854;20.580;2023-04-25T07:24:26;13.35;;;12.00;;
21758;SDS011;11041;50.854;20.580;2023-04-25T07:26:52;14.90;;;9.57;;
21758;SDS011;11041;50.854;20.580;2023-04-25T07:29:19;9.52;;;8.52;;
21758;SDS011;11041;50.854;20.580;2023-04-25T07:31:45;14.15;;;9.75;;
21758;SDS011;11041;50.854;20.580;2023-04-25T07:34:12;12.32;;;10.23;;
21758;SDS011;11041;50.854;20.580;2023-04-25T07:36:38;13.00;;;11.10;;
21758;SDS011;11041;50.854;20.580;2023-04-25T07:39:05;14.82;;;13.30;;
21758;SDS011;11041;50.854;20.580;2023-04-25T07:41:32;15.13;;;13.20;;
21758;SDS011;11041;50.854;20.580;2023-04-25T07:43:58;13.65;;;11.10;;
21758;SDS011;11041;50.854;20.580;2023-04-25T07:46:25;15.23;;;13.63;;
21758;SDS011;11041;50.854;20.580;2023-04-25T07:48:53;13.32;;;11.93;;
21758;SDS011;11041;50.854;20.580;2023-04-25T07:51:20;13.98;;;12.65;;
21758;SDS011;11041;50.854;20.580;2023-04-25T07:53:47;12.48;;;11.20;;
21758;SDS011;11041;50.854;20.580;2023-04-25T07:56:14;12.82;;;10.88;;
21758;SDS011;11041;50.854;20.580;2023-04-25T07:58:40;8.80;;;7.72;;
21758;SDS011;11041;50.854;20.580;2023-04-25T08:01:07;13.57;;;12.23;;
21758;SDS011;11041;50.854;20.580;2023-04-25T08:03:34;15.43;;;13.13;;
21758;SDS011;11041;50.854;20.580;2023-04-25T08:06:00;12.95;;;11.52;;
21758;SDS011;11041;50.854;20.580;2023-04-25T08:08:27;13.82;;;12.43;;
21758;SDS011;11041;50.854;20.580;2023-04-25T08:10:54;14.15;;;11.90;;
21758;SDS011;11041;50.854;20.580;2023-04-25T08:13:20;12.57;;;8.25;;
21758;SDS011;11041;50.854;20.580;2023-04-25T08:15:47;13.10;;;11.70;;
21758;SDS011;11041;50.854;20.580;2023-04-25T08:18:13;14.50;;;11.98;;
21758;SDS011;11041;50.854;20.580;2023-04-25T08:20:40;11.50;;;10.35;;
21758;SDS011;11041;50.854;20.580;2023-04-25T08:23:07;12.32;;;11.02;;
21758;SDS011;11041;50.854;20.580;2023-04-25T08:25:34;13.43;;;12.13;;
21758;SDS011;11041;50.854;20.580;2023-04-25T08:28:00;13.82;;;12.30;;
21758;SDS011;11041;50.854;20.580;2023-04-25T08:30:29;9.45;;;7.95;;
21758;SDS011;11041;50.854;20.580;2023-04-25T08:32:55;13.18;;;11.90;;
21758;SDS011;11041;50.854;20.580;2023-04-25T08:35:22;19.33;;;12.75;;
21758;SDS011;11041;50.854;20.580;2023-04-25T08:37:50;14.32;;;12.85;;
21758;SDS011;11041;50.854;20.580;2023-04-25T08:40:16;16.65;;;13.32;;
21758;SDS011;11041;50.854;20.580;2023-04-25T08:42:52;15.95;;;14.35;;
21758;SDS011;11041;50.854;20.580;2023-04-25T08:45:21;16.92;;;15.23;;
21758;SDS011;11041;50.854;20.580;2023-04-25T08:47:47;16.98;;;14.77;;
21758;SDS011;11041;50.854;20.580;2023-04-25T08:50:18;15.70;;;13.07;;
21758;SDS011;11041;50.854;20.580;2023-04-25T08:52:47;13.63;;;12.35;;
21758;SDS011;11041;50.854;20.580;2023-04-25T08:55:18;15.80;;;13.63;;
21758;SDS011;11041;50.854;20.580;2023-04-25T08:57:47;13.45;;;12.05;;
21758;SDS011;11041;50.854;20.580;2023-04-25T09:00:15;13.70;;;12.00;;
21758;SDS011;11041;50.854;20.580;2023-04-25T09:02:43;13.30;;;12.00;;
21758;SDS011;11041;50.854;20.580;2023-04-25T09:05:13;12.65;;;11.35;;
21758;SDS011;11041;50.854;20.580;2023-04-25T09:07:40;15.18;;;11.75;;
21758;SDS011;11041;50.854;20.580;2023-04-25T09:10:06;13.52;;;12.13;;
21758;SDS011;11041;50.854;20.580;2023-04-25T09:12:34;12.73;;;11.27;;
21758;SDS011;11041;50.854;20.580;2023-04-25T09:15:06;16.73;;;13.15;;
21758;SDS011;11041;50.854;20.580;2023-04-25T09:17:41;16.60;;;14.95;;
21758;SDS011;11041;50.854;20.580;2023-04-25T09:20:11;15.98;;;12.77;;
21758;SDS011;11041;50.854;20.580;2023-04-25T09:22:39;16.17;;;14.15;;
21758;SDS011;11041;50.854;20.580;2023-04-25T09:25:09;17.88;;;15.23;;
21758;SDS011;11041;50.854;20.580;2023-04-25T09:27:58;14.30;;;12.75;;
21758;SDS011;11041;50.854;20.580;2023-04-25T09:30:30;17.42;;;12.68;;
21758;SDS011;11041;50.854;20.580;2023-04-25T09:33:06;15.57;;;13.88;;
21758;SDS011;11041;50.854;20.580;2023-04-25T09:35:37;14.95;;;13.40;;
21758;SDS011;11041;50.854;20.580;2023-04-25T09:38:12;15.73;;;12.90;;
21758;SDS011;11041;50.854;20.580;2023-04-25T09:40:44;13.38;;;10.20;;
21758;SDS011;11041;50.854;20.580;2023-04-25T09:43:24;11.85;;;10.15;;
21758;SDS011;11041;50.854;20.580;2023-04-25T09:45:53;12.18;;;10.98;;
21758;SDS011;11041;50.854;20.580;2023-04-25T09:48:24;13.88;;;12.55;;
21758;SDS011;11041;50.854;20.580;2023-04-25T09:53:34;12.35;;;11.05;;
21758;SDS011;11041;50.854;20.580;2023-04-25T09:56:07;14.15;;;11.05;;
21758;SDS011;11041;50.854;20.580;2023-04-25T09:58:36;12.15;;;10.95;;
21758;SDS011;11041;50.854;20.580;2023-04-25T10:01:07;11.90;;;10.65;;
21758;SDS011;11041;50.854;20.580;2023-04-25T10:03:37;13.25;;;11.43;;
21758;SDS011;11041;50.854;20.580;2023-04-25T10:06:12;12.48;;;11.20;;
21758;SDS011;11041;50.854;20.580;2023-04-25T10:08:44;11.73;;;9.45;;
21758;SDS011;11041;50.854;20.580;2023-04-25T10:11:20;11.40;;;10.18;;
21758;SDS011;11041;50.854;20.580;2023-04-25T10:13:50;9.95;;;8.90;;
21758;SDS011;11041;50.854;20.580;2023-04-25T10:16:18;9.25;;;8.20;;
21758;SDS011;11041;50.854;20.580;2023-04-25T10:18:45;8.88;;;8.07;;
21758;SDS011;11041;50.854;20.580;2023-04-25T10:21:12;9.35;;;8.45;;
21758;SDS011;11041;50.854;20.580;2023-04-25T10:23:41;10.45;;;7.97;;
21758;SDS011;11041;50.854;20.580;2023-04-25T10:26:09;10.50;;;8.23;;
21758;SDS011;11041;50.854;20.580;2023-04-25T10:31:26;10.70;;;9.55;;
21758;SDS011;11041;50.854;20.580;2023-04-25T10:33:56;9.77;;;8.05;;
21758;SDS011;11041;50.854;20.580;2023-04-25T10:36:24;9.20;;;6.90;;
21758;SDS011;11041;50.854;20.580;2023-04-25T10:38:52;9.27;;;7.28;;
21758;SDS011;11041;50.854;20.580;2023-04-25T10:41:20;6.65;;;5.95;;
21758;SDS011;11041;50.854;20.580;2023-04-25T10:43:49;9.35;;;6.40;;
21758;SDS011;11041;50.854;20.580;2023-04-25T10:46:28;11.32;;;6.40;;
21758;SDS011;11041;50.854;20.580;2023-04-25T10:49:00;5.68;;;4.35;;
21758;SDS011;11041;50.854;20.580;2023-04-25T11:10:46;7.05;;;6.35;;
21758;SDS011;11041;50.854;20.580;2023-04-25T11:13:15;16.95;;;10.00;;
21758;SDS011;11041;50.854;20.580;2023-04-25T11:16:59;15.50;;;10.10;;
21758;SDS011;11041;50.854;20.580;2023-04-25T11:32:50;10.00;;;6.82;;
21758;SDS011;11041;50.854;20.580;2023-04-25T11:39:44;8.13;;;5.75;;
21758;SDS011;11041;50.854;20.580;2023-04-25T11:43:01;7.88;;;5.03;;
21758;SDS011;11041;50.854;20.580;2023-04-25T11:50:22;12.07;;;7.40;;
21758;SDS011;11041;50.854;20.580;2023-04-25T11:58:04;4.78;;;4.30;;
21758;SDS011;11041;50.854;20.580;2023-04-25T12:01:07;28.40;;;16.60;;
21758;SDS011;11041;50.854;20.580;2023-04-25T12:12:32;5.70;;;4.72;;
21758;SDS011;11041;50.854;20.580;2023-04-25T12:24:18;7.00;;;4.65;;
21758;SDS011;11041;50.854;20.580;2023-04-25T12:35:49;12.88;;;8.18;;
21758;SDS011;11041;50.854;20.580;2023-04-25T12:38:45;9.45;;;7.72;;
21758;SDS011;11041;50.854;20.580;2023-04-25T12:42:00;7.25;;;6.53;;
21758;SDS011;11041;50.854;20.580;2023-04-25T12:44:29;10.93;;;8.05;;
21758;SDS011;11041;50.854;20.580;2023-04-25T12:47:08;11.93;;;7.47;;
21758;SDS011;11041;50.854;20.580;2023-04-25T12:49:38;13.25;;;9.38;;
21758;SDS011;11041;50.854;20.580;2023-04-25T12:52:11;8.23;;;7.43;;
21758;SDS011;11041;50.854;20.580;2023-04-25T12:54:38;10.23;;;8.85;;
21758;SDS011;11041;50.854;20.580;2023-04-25T12:57:04;8.93;;;8.02;;
21758;SDS011;11041;50.854;20.580;2023-04-25T12:59:35;9.70;;;8.63;;
21758;SDS011;11041;50.854;20.580;2023-04-25T13:02:01;9.27;;;7.78;;
21758;SDS011;11041;50.854;20.580;2023-04-25T13:04:30;9.60;;;8.30;;
21758;SDS011;11041;50.854;20.580;2023-04-25T13:06:57;14.48;;;9.98;;
21758;SDS011;11041;50.854;20.580;2023-04-25T13:09:26;11.93;;;8.65;;
21758;SDS011;11041;50.854;20.580;2023-04-25T13:11:55;13.13;;;9.20;;
21758;SDS011;11041;50.854;20.580;2023-04-25T13:14:23;12.10;;;9.98;;
21758;SDS011;11041;50.854;20.580;2023-04-25T13:16:50;13.00;;;9.65;;
21758;SDS011;11041;50.854;20.580;2023-04-25T13:19:16;10.70;;;9.48;;
21758;SDS011;11041;50.854;20.580;2023-04-25T13:38:10;14.23;;;11.38;;
21758;SDS011;11041;50.854;20.580;2023-04-25T13:40:36;17.88;;;13.98;;
21758;SDS011;11041;50.854;20.580;2023-04-25T13:43:03;17.00;;;12.18;;
21758;SDS011;11041;50.854;20.580;2023-04-25T13:45:29;16.23;;;12.38;;
21758;SDS011;11041;50.854;20.580;2023-04-25T13:47:56;16.75;;;12.23;;
21758;SDS011;11041;50.854;20.580;2023-04-25T13:50:22;14.18;;;11.23;;
21758;SDS011;11041;50.854;20.580;2023-04-25T13:52:49;16.33;;;12.10;;
21758;SDS011;11041;50.854;20.580;2023-04-25T13:55:15;14.05;;;10.57;;
21758;SDS011;11041;50.854;20.580;2023-04-25T13:57:42;12.82;;;10.65;;
21758;SDS011;11041;50.854;20.580;2023-04-25T14:00:09;14.55;;;10.95;;
21758;SDS011;11041;50.854;20.580;2023-04-25T14:02:37;12.07;;;10.32;;
21758;SDS011;11041;50.854;20.580;2023-04-25T14:05:04;13.52;;;10.10;;
21758;SDS011;11041;50.854;20.580;2023-04-25T14:07:33;11.73;;;9.75;;
21758;SDS011;11041;50.854;20.580;2023-04-25T14:10:00;12.57;;;9.82;;
21758;SDS011;11041;50.854;20.580;2023-04-25T14:12:34;24.10;;;15.77;;
21758;SDS011;11041;50.854;20.580;2023-04-25T14:15:09;23.38;;;15.60;;
21758;SDS011;11041;50.854;20.580;2023-04-25T14:17:39;17.15;;;13.43;;
21758;SDS011;11041;50.854;20.580;2023-04-25T14:20:19;15.60;;;12.45;;
21758;SDS011;11041;50.854;20.580;2023-04-25T14:22:49;16.25;;;13.32;;
21758;SDS011;11041;50.854;20.580;2023-04-25T14:25:15;17.85;;;12.95;;
21758;SDS011;11041;50.854;20.580;2023-04-25T14:27:45;14.48;;;12.35;;
21758;SDS011;11041;50.854;20.580;2023-04-25T14:34:27;18.20;;;14.45;;
21758;SDS011;11041;50.854;20.580;2023-04-25T14:36:54;19.27;;;16.23;;
21758;SDS011;11041;50.854;20.580;2023-04-25T14:39:20;19.02;;;15.25;;
21758;SDS011;11041;50.854;20.580;2023-04-25T14:41:46;38.03;;;16.02;;
21758;SDS011;11041;50.854;20.580;2023-04-25T14:44:13;19.45;;;14.05;;
21758;SDS011;11041;50.854;20.580;2023-04-25T14:46:40;23.20;;;15.57;;
21758;SDS011;11041;50.854;20.580;2023-04-25T14:49:07;20.52;;;16.10;;
21758;SDS011;11041;50.854;20.580;2023-04-25T14:51:33;18.98;;;13.95;;
21758;SDS011;11041;50.854;20.580;2023-04-25T14:54:00;17.83;;;13.38;;
21758;SDS011;11041;50.854;20.580;2023-04-25T14:56:27;18.20;;;13.50;;
21758;SDS011;11041;50.854;20.580;2023-04-25T14:58:54;22.67;;;14.20;;
21758;SDS011;11041;50.854;20.580;2023-04-25T15:01:20;15.32;;;12.02;;
21758;SDS011;11041;50.854;20.580;2023-04-25T15:03:48;14.80;;;11.75;;
21758;SDS011;11041;50.854;20.580;2023-04-25T15:06:16;16.27;;;12.80;;
21758;SDS011;11041;50.854;20.580;2023-04-25T15:08:43;14.85;;;11.43;;
21758;SDS011;11041;50.854;20.580;2023-04-25T15:11:09;15.60;;;11.90;;
21758;SDS011;11041;50.854;20.580;2023-04-25T15:13:36;16.13;;;11.73;;
21758;SDS011;11041;50.854;20.580;2023-04-25T15:16:03;33.83;;;19.67;;
21758;SDS011;11041;50.854;20.580;2023-04-25T15:18:30;22.75;;;15.13;;
21758;SDS011;11041;50.854;20.580;2023-04-25T15:20:57;34.70;;;22.75;;
21758;SDS011;11041;50.854;20.580;2023-04-25T15:23:23;23.73;;;16.88;;
21758;SDS011;11041;50.854;20.580;2023-04-25T15:25:50;25.05;;;17.30;;
21758;SDS011;11041;50.854;20.580;2023-04-25T15:28:18;25.30;;;17.52;;
21758;SDS011;11041;50.854;20.580;2023-04-25T15:30:46;18.98;;;15.13;;
21758;SDS011;11041;50.854;20.580;2023-04-25T15:33:13;21.42;;;16.85;;
21758;SDS011;11041;50.854;20.580;2023-04-25T15:35:40;22.88;;;17.02;;
21758;SDS011;11041;50.854;20.580;2023-04-25T15:38:07;18.00;;;12.02;;
21758;SDS011;11041;50.854;20.580;2023-04-25T15:40:36;16.58;;;13.15;;
21758;SDS011;11041;50.854;20.580;2023-04-25T15:43:03;17.58;;;12.48;;
21758;SDS011;11041;50.854;20.580;2023-04-25T15:45:29;15.02;;;11.77;;
21758;SDS011;11041;50.854;20.580;2023-04-25T15:47:57;14.75;;;11.35;;
21758;SDS011;11041;50.854;20.580;2023-04-25T15:50:24;19.48;;;13.55;;
21758;SDS011;11041;50.854;20.580;2023-04-25T15:52:51;18.40;;;13.50;;
21758;SDS011;11041;50.854;20.580;2023-04-25T15:55:18;18.52;;;13.85;;
21758;SDS011;11041;50.854;20.580;2023-04-25T15:57:47;21.60;;;14.15;;
21758;SDS011;11041;50.854;20.580;2023-04-25T16:00:15;19.27;;;14.10;;
21758;SDS011;11041;50.854;20.580;2023-04-25T16:02:44;24.10;;;16.20;;
21758;SDS011;11041;50.854;20.580;2023-04-25T16:05:12;23.77;;;18.13;;
21758;SDS011;11041;50.854;20.580;2023-04-25T16:07:40;32.05;;;19.30;;
21758;SDS011;11041;50.854;20.580;2023-04-25T16:10:09;30.00;;;20.17;;
21758;SDS011;11041;50.854;20.580;2023-04-25T16:12:38;28.10;;;18.90;;
21758;SDS011;11041;50.854;20.580;2023-04-25T16:15:05;20.20;;;13.40;;
21758;SDS011;11041;50.854;20.580;2023-04-25T16:17:33;23.63;;;16.65;;
21758;SDS011;11041;50.854;20.580;2023-04-25T16:19:59;23.65;;;15.75;;
21758;SDS011;11041;50.854;20.580;2023-04-25T16:22:35;22.80;;;14.73;;